Terminal Aerodrome Forecast
Issued by NWS Wilmington, OH

Home | Current Version | Previous Version | Text Only | Print | Product List | Glossary On
Versions: 1 2 3 4 5 6 7 8 9 10 11 12 13 14 15 16 17 18 19
000
FTUS41 KILN 232300 RRA
TAFILN
TAF
KILN 232341Z 2400/2424 16005KT P6SM SCT100 BKN250
     FM241200 16008KT P6SM BKN100
     FM241500 19011KT P6SM SCT050 BKN200=

USA.gov is the U.S. government's official web portal to all federal, state and local government web resources and services.